Time;durP1;ratioP1;P1;durP2;ratioP2;P2;SDS_P1;SDS_P2;PMS_P1;PMS_P2;Temp;Humidity;BMP_temperature;BMP_pressure;BME280_temperature;BME280_humidity;BME280_pressure;Samples;Min_cycle;Max_cycle;Signal;HPM_P1;HPM_P2
2023/10/14 00:01:34;;;;;;;13.43;6.68;;;18.70;99.90;;;;;;4966147;28;20237;-80
2023/10/14 00:04:01;;;;;;;16.38;8.35;;;18.70;99.90;;;;;;4972646;28;20041;-81
2023/10/14 00:06:27;;;;;;;21.23;8.30;;;18.50;99.90;;;;;;4974148;28;20487;-81
2023/10/14 00:08:58;;;;;;;18.98;7.72;;;18.50;99.90;;;;;;4969314;28;20068;-79
2023/10/14 00:11:27;;;;;;;20.67;9.68;;;18.30;99.90;;;;;;4973298;28;20042;-80
2023/10/14 00:13:53;;;;;;;18.80;9.60;;;18.20;99.90;;;;;;4975611;28;20042;-80
2023/10/14 00:18:58;;;;;;;18.17;8.05;;;18.10;99.90;;;;;;4981294;28;20096;-80
2023/10/14 00:21:24;;;;;;;16.90;7.32;;;18.10;99.90;;;;;;4970665;28;20394;-80
2023/10/14 00:23:52;;;;;;;15.75;7.03;;;18.10;99.90;;;;;;4963574;28;20478;-80
2023/10/14 00:26:20;;;;;;;7.32;4.65;;;18.10;99.90;;;;;;4965510;28;20080;-80
2023/10/14 00:28:46;;;;;;;12.55;7.22;;;18.00;99.90;;;;;;4977414;28;20041;-79
2023/10/14 00:31:15;;;;;;;14.98;8.75;;;17.90;99.90;;;;;;4974402;28;20410;-79
2023/10/14 00:33:41;;;;;;;12.52;6.30;;;17.90;99.90;;;;;;4961076;28;20038;-80
2023/10/14 00:36:14;;;;;;;16.30;7.38;;;17.60;99.90;;;;;;4975887;28;20030;-79
2023/10/14 00:38:43;;;;;;;15.38;7.28;;;17.60;99.90;;;;;;4955567;28;20113;-79
2023/10/14 00:41:09;;;;;;;9.70;5.38;;;17.40;99.90;;;;;;4955380;28;20415;-79
2023/10/14 00:43:36;;;;;;;13.70;7.35;;;17.50;99.90;;;;;;4956766;28;20062;-79
2023/10/14 00:46:05;;;;;;;13.27;8.60;;;17.50;99.90;;;;;;4959381;28;20045;-79
2023/10/14 00:48:34;;;;;;;15.88;6.38;;;17.50;99.90;;;;;;4958646;28;20666;-79
2023/10/14 00:51:01;;;;;;;10.48;6.00;;;17.40;99.90;;;;;;4955419;28;20066;-79
2023/10/14 00:53:28;;;;;;;9.85;5.65;;;17.40;99.90;;;;;;4940615;28;20501;-79
2023/10/14 00:55:54;;;;;;;10.38;6.50;;;17.40;99.90;;;;;;4970923;28;20057;-80
2023/10/14 00:58:21;;;;;;;13.13;7.38;;;17.30;99.90;;;;;;4953347;28;20084;-79
2023/10/14 01:00:59;;;;;;;36.95;4.65;;;17.30;99.90;;;;;;4958406;28;20030;-80
2023/10/14 01:03:25;;;;;;;13.13;7.63;;;17.20;99.90;;;;;;4954835;28;20054;-80
2023/10/14 01:06:07;;;;;;;18.00;8.27;;;17.20;99.90;;;;;;4977916;28;20064;-79
2023/10/14 01:08:37;;;;;;;8.80;4.95;;;17.20;99.90;;;;;;4975325;28;20038;-80
2023/10/14 01:11:03;;;;;;;10.00;7.57;;;17.20;99.90;;;;;;4974505;28;20120;-80
2023/10/14 01:13:29;;;;;;;9.25;5.00;;;17.20;99.90;;;;;;4959787;28;20050;-80
2023/10/14 01:16:08;;;;;;;9.95;4.63;;;17.20;99.90;;;;;;4974189;28;20031;-80
2023/10/14 01:18:37;;;;;;;12.90;5.95;;;17.20;99.90;;;;;;4965386;28;20026;-80
2023/10/14 01:21:03;;;;;;;8.98;5.47;;;17.10;99.90;;;;;;4960613;28;20042;-79
2023/10/14 01:23:29;;;;;;;15.30;8.80;;;17.10;99.90;;;;;;4972126;28;20038;-79
2023/10/14 01:25:57;;;;;;;46.25;8.00;;;17.00;99.90;;;;;;4974463;28;20111;-78
2023/10/14 01:28:29;;;;;;;21.65;4.28;;;16.80;99.90;;;;;;4959977;28;20057;-78
2023/10/14 01:32:05;;;;;;;14.18;3.90;;;16.30;99.90;;;;;;4939180;28;20081;-78
2023/10/14 01:34:24;;;;;;;26.00;3.67;;;16.00;99.90;;;;;;4977520;28;20038;-77
2023/10/14 01:36:50;;;;;;;13.63;2.05;;;15.80;99.90;;;;;;4979528;28;20046;-77
2023/10/14 01:39:21;;;;;;;5.90;2.28;;;15.70;99.90;;;;;;4960998;28;20110;-78
2023/10/14 01:41:47;;;;;;;3.03;1.33;;;15.60;99.90;;;;;;4976640;28;20042;-78
2023/10/14 01:44:21;;;;;;;1.65;1.27;;;15.50;99.90;;;;;;4977395;28;20104;-79
2023/10/14 01:46:47;;;;;;;4.88;0.70;;;15.60;99.90;;;;;;4959660;28;20031;-78
2023/10/14 01:49:19;;;;;;;4.40;0.60;;;15.50;99.90;;;;;;4959595;28;20653;-77
2023/10/14 01:51:50;;;;;;;7.68;1.30;;;15.50;99.90;;;;;;4964203;28;20045;-77
2023/10/14 01:54:16;;;;;;;4.13;1.77;;;15.50;99.90;;;;;;4969842;28;20712;-79
2023/10/14 01:56:44;;;;;;;2.28;0.57;;;15.60;99.90;;;;;;4977340;28;20072;-78
2023/10/14 01:59:10;;;;;;;8.95;0.73;;;15.50;99.90;;;;;;4963893;28;20041;-77
2023/10/14 02:01:41;;;;;;;14.25;0.80;;;15.50;99.90;;;;;;4975573;28;20022;-78
2023/10/14 02:04:06;;;;;;;6.13;0.57;;;15.40;99.90;;;;;;4978617;28;20125;-78
2023/10/14 02:06:32;;;;;;;2.20;0.57;;;15.30;99.90;;;;;;4974841;28;20109;-77
2023/10/14 02:08:58;;;;;;;1.95;0.32;;;15.20;99.90;;;;;;4971866;28;20089;-77
2023/10/14 02:11:24;;;;;;;1.40;0.40;;;15.30;99.90;;;;;;4975579;28;20046;-78
2023/10/14 02:13:50;;;;;;;3.38;0.40;;;15.30;99.90;;;;;;4972192;28;20046;-77
2023/10/14 02:16:15;;;;;;;2.67;0.38;;;15.20;99.90;;;;;;4973565;28;20035;-78
2023/10/14 02:18:42;;;;;;;1.05;0.20;;;15.10;99.90;;;;;;4975569;28;20049;-77
2023/10/14 02:23:44;;;;;;;1.85;0.30;;;15.10;99.90;;;;;;4958760;28;20069;-78
2023/10/14 02:26:22;;;;;;;4.25;0.85;;;15.00;99.90;;;;;;4975449;28;20896;-77
2023/10/14 02:28:47;;;;;;;1.00;0.50;;;14.90;99.90;;;;;;4972597;28;20394;-77
2023/10/14 02:31:46;;;;;;;3.10;0.20;;;15.00;99.90;;;;;;4957929;28;20034;-76
2023/10/14 02:34:08;;;;;;;10.02;0.85;;;14.80;99.90;;;;;;4977747;28;20579;-77
2023/10/14 02:36:35;;;;;;;4.22;0.60;;;14.90;99.90;;;;;;4971214;28;20113;-77
2023/10/14 02:39:01;;;;;;;3.05;0.60;;;14.80;99.90;;;;;;4972194;28;20504;-77
2023/10/14 02:41:27;;;;;;;2.10;0.77;;;14.80;99.90;;;;;;4974616;28;20034;-76
2023/10/14 02:46:45;;;;;;;1.67;0.93;;;14.60;99.90;;;;;;4975267;28;20117;-77
2023/10/14 02:49:14;;;;;;;0.85;0.63;;;14.70;99.90;;;;;;4970196;28;20085;-77
2023/10/14 02:51:43;;;;;;;1.30;0.82;;;14.70;99.90;;;;;;4954657;28;20042;-77
2023/10/14 02:54:15;;;;;;;4.68;1.35;;;14.70;99.90;;;;;;4969538;28;20541;-77
2023/10/14 02:59:18;;;;;;;2.22;1.25;;;14.70;99.90;;;;;;4975084;28;20395;-78
2023/10/14 03:01:44;;;;;;;2.72;1.00;;;14.60;99.90;;;;;;4970242;28;20238;-77
2023/10/14 03:04:11;;;;;;;3.40;1.55;;;14.60;99.90;;;;;;4975436;28;20045;-77
2023/10/14 03:06:46;;;;;;;3.95;2.42;;;14.60;99.90;;;;;;4977173;28;20490;-78
2023/10/14 03:09:17;;;;;;;7.38;4.53;;;14.60;99.90;;;;;;4974412;28;20491;-77
2023/10/14 03:11:49;;;;;;;6.20;4.40;;;14.50;99.90;;;;;;4955836;28;20803;-77
2023/10/14 03:14:16;;;;;;;7.63;6.22;;;14.50;99.90;;;;;;4956268;28;20557;-76
2023/10/14 03:16:41;;;;;;;8.25;6.03;;;14.40;99.90;;;;;;4955795;28;20566;-77
2023/10/14 03:19:07;;;;;;;7.40;4.00;;;14.40;99.90;;;;;;4956989;28;20113;-77
2023/10/14 03:21:36;;;;;;;6.53;2.72;;;14.30;99.90;;;;;;4956916;28;20125;-77
2023/10/14 03:24:03;;;;;;;6.75;2.35;;;14.20;99.90;;;;;;4963877;28;20395;-77
2023/10/14 03:26:32;;;;;;;7.53;1.90;;;14.20;99.90;;;;;;4961081;28;20125;-77
2023/10/14 03:29:05;;;;;;;5.35;1.48;;;14.20;99.90;;;;;;4957546;28;20095;-77
2023/10/14 03:31:35;;;;;;;4.75;1.48;;;14.10;99.90;;;;;;4972420;28;20545;-77
2023/10/14 03:34:08;;;;;;;6.60;1.50;;;13.80;99.90;;;;;;4975605;28;20038;-76
2023/10/14 03:36:33;;;;;;;3.63;1.02;;;13.70;99.90;;;;;;4957063;28;21312;-77
2023/10/14 03:38:59;;;;;;;7.70;1.35;;;13.80;99.90;;;;;;4970831;28;20046;-77
2023/10/14 03:41:29;;;;;;;6.13;1.25;;;13.80;99.90;;;;;;4971771;28;20061;-77
2023/10/14 03:46:33;;;;;;;6.68;1.40;;;13.70;99.90;;;;;;4960604;28;20042;-77
2023/10/14 03:49:06;;;;;;;10.00;1.55;;;13.50;99.90;;;;;;4970216;28;20030;-77
2023/10/14 03:51:32;;;;;;;5.30;1.05;;;13.50;99.90;;;;;;4955485;28;20684;-76
2023/10/14 03:54:07;;;;;;;8.50;1.42;;;13.40;99.90;;;;;;4971750;28;20093;-77
2023/10/14 03:56:34;;;;;;;4.83;1.27;;;13.30;99.90;;;;;;4958084;28;20041;-77
2023/10/14 03:59:03;;;;;;;8.43;1.27;;;13.40;99.90;;;;;;4951229;28;20523;-77
2023/10/14 04:02:19;;;;;;;12.73;1.63;;;13.30;99.90;;;;;;4938260;28;20113;-77
2023/10/14 04:04:18;;;;;;;4.40;1.13;;;13.40;99.90;;;;;;4959823;28;20073;-77
2023/10/14 04:09:39;;;;;;;2.83;1.10;;;13.30;99.90;;;;;;4959676;28;20229;-77
2023/10/14 04:12:08;;;;;;;3.65;1.15;;;13.30;99.90;;;;;;4975303;28;20431;-77
2023/10/14 04:14:37;;;;;;;8.52;1.40;;;13.30;99.90;;;;;;4972063;28;20786;-79
2023/10/14 04:17:19;;;;;;;8.38;1.40;;;13.20;99.90;;;;;;4973280;28;20490;-78
2023/10/14 04:19:46;;;;;;;4.13;1.10;;;13.20;99.90;;;;;;4972513;28;20085;-78
2023/10/14 04:22:27;;;;;;;10.25;1.58;;;13.00;99.90;;;;;;4975936;28;20046;-78
2023/10/14 04:27:45;;;;;;;9.23;1.40;;;13.20;99.90;;;;;;4971195;28;20390;-77
2023/10/14 04:30:11;;;;;;;6.78;1.35;;;13.20;99.90;;;;;;4971525;28;20125;-77
2023/10/14 04:35:24;;;;;;;6.63;1.33;;;13.20;99.90;;;;;;4977160;28;20080;-77
2023/10/14 04:37:53;;;;;;;8.82;1.70;;;13.20;99.90;;;;;;4963154;28;20030;-78
2023/10/14 04:46:16;;;;;;;7.55;1.50;;;12.80;99.90;;;;;;4964581;28;20490;-78
2023/10/14 04:51:06;;;;;;;14.68;2.28;;;12.70;99.90;;;;;;4976731;28;20034;-77
2023/10/14 04:53:31;;;;;;;12.75;2.63;;;12.60;99.90;;;;;;4958164;28;20130;-77
2023/10/14 04:56:01;;;;;;;12.25;2.63;;;12.60;99.90;;;;;;4960116;28;20565;-78
2023/10/14 04:58:26;;;;;;;10.50;2.78;;;12.60;99.90;;;;;;4976523;28;20038;-78
2023/10/14 05:00:52;;;;;;;8.52;2.38;;;12.70;99.90;;;;;;4976770;28;20037;-78
2023/10/14 05:03:19;;;;;;;6.15;1.58;;;12.60;99.90;;;;;;4976053;28;20177;-77
2023/10/14 05:06:04;;;;;;;15.45;3.13;;;12.60;99.90;;;;;;4950424;28;20064;-77
2023/10/14 05:08:45;;;;;;;4.88;1.73;;;12.50;99.90;;;;;;4979838;28;20092;-78
2023/10/14 05:11:14;;;;;;;10.30;2.03;;;12.40;99.90;;;;;;4961320;28;20041;-78
2023/10/14 05:13:42;;;;;;;13.88;2.13;;;12.30;99.90;;;;;;4973381;28;20038;-78
2023/10/14 05:19:07;;;;;;;10.00;2.30;;;12.40;99.90;;;;;;4937359;28;20036;-79
2023/10/14 05:21:36;;;;;;;8.10;1.65;;;12.40;99.90;;;;;;4975295;28;20114;-79
2023/10/14 05:24:04;;;;;;;9.18;2.10;;;12.30;99.90;;;;;;4977101;28;20044;-78
2023/10/14 05:26:35;;;;;;;9.93;2.00;;;12.20;99.90;;;;;;4957462;28;20458;-77
2023/10/14 05:29:11;;;;;;;10.10;1.98;;;12.10;99.90;;;;;;4959605;28;20709;-77
2023/10/14 05:31:37;;;;;;;8.88;1.65;;;12.20;99.90;;;;;;4974672;28;20030;-77
2023/10/14 05:34:04;;;;;;;8.98;1.70;;;12.00;99.90;;;;;;4971715;28;20065;-77
2023/10/14 05:36:32;;;;;;;11.27;1.35;;;12.00;99.90;;;;;;4260357;28;10000249;-78
2023/10/14 05:38:57;;;;;;;8.25;1.40;;;12.00;99.90;;;;;;4957259;28;20065;-77
2023/10/14 05:41:23;;;;;;;10.63;1.92;;;12.10;99.90;;;;;;4977174;28;20120;-77
2023/10/14 05:43:51;;;;;;;6.88;1.45;;;11.90;99.90;;;;;;4991065;28;20042;-77
2023/10/14 05:46:16;;;;;;;8.70;1.55;;;11.70;99.90;;;;;;4999263;28;20038;-77
2023/10/14 05:48:42;;;;;;;13.73;1.38;;;11.70;99.90;;;;;;4962934;28;20030;-78
2023/10/14 05:51:08;;;;;;;5.72;1.00;;;11.80;99.90;;;;;;4961309;28;20112;-78
2023/10/14 05:53:33;;;;;;;11.38;2.10;;;11.90;99.90;;;;;;4957946;28;20475;-77
2023/10/14 05:56:14;;;;;;;6.75;1.20;;;11.90;99.90;;;;;;4973671;28;20055;-77
2023/10/14 05:58:45;;;;;;;6.07;1.33;;;11.80;99.90;;;;;;4974523;28;20049;-77
2023/10/14 06:01:13;;;;;;;9.80;1.33;;;11.80;99.90;;;;;;4974745;28;20050;-77
2023/10/14 06:03:39;;;;;;;3.30;1.00;;;11.70;99.90;;;;;;4976661;28;20514;-77
2023/10/14 06:06:14;;;;;;;10.63;1.70;;;11.80;99.90;;;;;;4975059;28;20045;-76
2023/10/14 06:08:40;;;;;;;6.75;1.40;;;11.60;99.90;;;;;;4974159;28;20049;-77
2023/10/14 06:11:06;;;;;;;7.82;1.13;;;11.70;99.90;;;;;;4969239;28;20125;-76
2023/10/14 06:13:32;;;;;;;12.07;1.80;;;11.60;99.90;;;;;;4975581;28;20110;-76
2023/10/14 06:16:04;;;;;;;4.95;1.10;;;11.70;99.90;;;;;;4960198;28;20050;-76
2023/10/14 06:18:32;;;;;;;6.32;1.38;;;11.60;99.90;;;;;;4963256;28;20061;-77
2023/10/14 06:20:59;;;;;;;10.18;1.83;;;11.50;99.90;;;;;;4973463;28;20096;-76
2023/10/14 06:23:26;;;;;;;8.60;2.42;;;11.50;99.90;;;;;;4956749;28;20039;-76
2023/10/14 06:25:55;;;;;;;7.00;1.77;;;11.40;99.90;;;;;;4960845;28;20542;-76
2023/10/14 06:28:21;;;;;;;7.18;1.67;;;11.40;99.90;;;;;;4974276;28;20483;-76
2023/10/14 06:30:47;;;;;;;8.95;1.75;;;11.50;99.90;;;;;;4973398;28;20034;-78
2023/10/14 06:33:12;;;;;;;8.70;2.22;;;11.50;99.90;;;;;;4958032;28;20121;-76
2023/10/14 06:35:42;;;;;;;7.78;1.48;;;11.40;99.90;;;;;;4956535;28;20038;-76
2023/10/14 06:38:09;;;;;;;9.05;1.38;;;11.40;99.90;;;;;;4975004;28;20034;-78
2023/10/14 06:40:35;;;;;;;5.82;1.33;;;11.50;99.90;;;;;;4956480;28;20113;-78
2023/10/14 06:43:09;;;;;;;12.18;2.25;;;11.40;99.90;;;;;;4957607;28;20042;-78
2023/10/14 06:45:35;;;;;;;10.80;1.60;;;11.50;99.90;;;;;;4947293;28;20026;-78
2023/10/14 06:48:03;;;;;;;9.10;1.17;;;11.60;99.90;;;;;;4958187;28;20058;-78
2023/10/14 06:50:32;;;;;;;6.05;1.23;;;11.60;99.90;;;;;;4975242;28;20034;-78
2023/10/14 06:52:58;;;;;;;11.15;2.15;;;11.60;99.90;;;;;;4973888;28;20034;-78
2023/10/14 06:55:26;;;;;;;9.57;2.28;;;11.30;99.90;;;;;;4963401;28;20514;-78
2023/10/14 06:57:53;;;;;;;13.13;1.60;;;11.40;99.90;;;;;;4971187;28;20061;-78
2023/10/14 07:00:25;;;;;;;7.38;1.65;;;11.60;99.90;;;;;;4959720;28;20509;-78
2023/10/14 07:02:53;;;;;;;3.92;0.68;;;11.60;99.90;;;;;;4971970;28;20050;-78
2023/10/14 07:05:19;;;;;;;5.30;1.60;;;11.50;99.90;;;;;;4958898;28;20034;-78
2023/10/14 07:07:46;;;;;;;9.23;1.83;;;11.50;99.90;;;;;;4954743;28;20046;-79
2023/10/14 07:10:13;;;;;;;10.55;1.75;;;11.60;99.90;;;;;;4971612;28;20080;-78
2023/10/14 07:12:38;;;;;;;13.70;2.17;;;11.70;99.90;;;;;;4959416;28;20499;-79
2023/10/14 07:15:06;;;;;;;7.35;1.42;;;11.80;99.90;;;;;;4975416;28;20030;-78
2023/10/14 07:17:31;;;;;;;9.43;1.90;;;11.80;99.90;;;;;;4953935;28;20549;-79
2023/10/14 07:19:57;;;;;;;12.52;2.35;;;11.80;99.90;;;;;;4959075;28;20029;-78
2023/10/14 07:22:22;;;;;;;16.25;2.53;;;11.70;99.90;;;;;;4970909;28;20053;-77
2023/10/14 07:24:48;;;;;;;7.25;2.00;;;11.80;99.90;;;;;;4958568;28;20060;-79
2023/10/14 07:27:17;;;;;;;11.98;1.85;;;11.80;99.90;;;;;;4972684;28;20426;-78
2023/10/14 07:29:45;;;;;;;6.57;1.55;;;12.00;99.90;;;;;;4973887;28;20038;-78
2023/10/14 07:32:15;;;;;;;8.75;1.67;;;12.00;99.90;;;;;;4984441;28;20028;-78
2023/10/14 07:34:41;;;;;;;15.98;2.95;;;12.00;99.90;;;;;;4959082;28;20037;-78
2023/10/14 07:37:09;;;;;;;19.70;2.40;;;12.10;99.90;;;;;;4968358;28;20482;-78
2023/10/14 07:39:35;;;;;;;8.25;1.90;;;12.00;99.90;;;;;;4957754;28;20030;-78
2023/10/14 07:42:09;;;;;;;10.85;2.17;;;12.20;99.90;;;;;;4960669;28;21838;-78
2023/10/14 07:44:35;;;;;;;21.42;2.05;;;12.30;99.90;;;;;;4974434;28;20512;-78
2023/10/14 07:47:05;;;;;;;4.53;1.63;;;12.30;99.90;;;;;;4967638;28;20088;-79
2023/10/14 07:49:32;;;;;;;7.10;1.60;;;12.30;99.90;;;;;;4970661;28;20034;-78
2023/10/14 07:52:00;;;;;;;14.85;2.70;;;12.30;99.90;;;;;;4959075;28;20067;-79
2023/10/14 07:54:28;;;;;;;13.88;2.42;;;12.40;99.90;;;;;;4955156;28;20034;-77
2023/10/14 07:56:54;;;;;;;4.22;1.70;;;12.70;99.90;;;;;;4962956;28;20129;-77
2023/10/14 07:59:19;;;;;;;9.30;2.10;;;12.50;99.90;;;;;;4988198;28;20217;-78
2023/10/14 08:01:45;;;;;;;16.17;3.10;;;12.60;99.90;;;;;;4970251;28;20034;-78
2023/10/14 08:04:14;;;;;;;13.70;2.40;;;12.50;99.90;;;;;;4974371;28;20616;-79
2023/10/14 08:06:40;;;;;;;10.82;1.77;;;12.40;99.90;;;;;;4976408;28;20789;-78
2023/10/14 08:09:15;;;;;;;13.02;2.17;;;12.60;99.90;;;;;;4974500;28;21216;-79
2023/10/14 08:11:41;;;;;;;14.85;2.28;;;12.60;99.90;;;;;;4954815;28;20033;-79
2023/10/14 08:14:07;;;;;;;10.10;1.83;;;12.70;99.90;;;;;;4973487;28;20077;-79
2023/10/14 08:16:32;;;;;;;14.57;2.72;;;12.60;99.90;;;;;;4972309;28;20054;-79
2023/10/14 08:19:00;;;;;;;8.75;1.55;;;12.70;99.90;;;;;;4956236;28;20031;-79
2023/10/14 08:21:26;;;;;;;15.82;1.85;;;12.70;99.90;;;;;;4974573;28;20093;-80
2023/10/14 08:23:51;;;;;;;12.35;2.10;;;12.80;99.90;;;;;;4958445;28;20042;-79
2023/10/14 08:26:18;;;;;;;18.67;3.10;;;12.80;99.90;;;;;;4972668;28;20031;-79
2023/10/14 08:28:44;;;;;;;15.23;3.08;;;12.60;99.90;;;;;;4972291;28;20121;-78
2023/10/14 08:31:11;;;;;;;7.20;1.95;;;12.70;99.90;;;;;;4961189;28;20034;-79
2023/10/14 08:33:37;;;;;;;7.22;2.63;;;12.80;99.90;;;;;;4972415;28;20034;-78
2023/10/14 08:36:03;;;;;;;20.75;2.67;;;12.90;99.90;;;;;;4972179;28;20847;-78
2023/10/14 08:38:28;;;;;;;8.80;1.83;;;12.90;99.90;;;;;;4973407;28;20239;-78
2023/10/14 08:40:55;;;;;;;10.23;2.20;;;13.10;99.90;;;;;;4958018;28;20130;-78
2023/10/14 08:43:26;;;;;;;9.63;1.83;;;13.10;99.90;;;;;;4959012;28;20037;-79
2023/10/14 08:45:53;;;;;;;6.15;1.50;;;13.00;99.90;;;;;;4959758;28;20050;-78
2023/10/14 08:48:23;;;;;;;13.10;2.10;;;13.30;99.90;;;;;;4964130;28;20442;-78
2023/10/14 08:50:49;;;;;;;10.70;1.60;;;13.20;99.90;;;;;;4970809;28;20046;-80
2023/10/14 08:53:15;;;;;;;7.18;2.10;;;13.40;99.90;;;;;;4955929;28;20040;-80
2023/10/14 08:55:40;;;;;;;10.27;2.13;;;13.30;99.90;;;;;;4953530;28;20388;-80
2023/10/14 08:58:07;;;;;;;13.65;2.00;;;13.60;99.90;;;;;;4957564;28;20393;-81
2023/10/14 09:00:36;;;;;;;9.20;2.17;;;13.10;99.90;;;;;;4974465;28;20571;-80
2023/10/14 09:03:02;;;;;;;10.32;1.55;;;13.30;99.90;;;;;;4974991;28;20042;-78
2023/10/14 09:05:30;;;;;;;14.07;2.08;;;13.90;99.90;;;;;;4971005;28;20545;-80
2023/10/14 09:07:57;;;;;;;10.27;1.65;;;13.60;99.90;;;;;;4969966;28;20035;-78
2023/10/14 09:10:24;;;;;;;9.77;1.52;;;14.00;99.90;;;;;;4975286;28;20036;-79
2023/10/14 09:12:59;;;;;;;10.23;1.80;;;14.10;99.90;;;;;;4970957;28;20031;-80
2023/10/14 09:15:28;;;;;;;10.30;1.85;;;14.00;99.90;;;;;;4987875;28;20030;-80
2023/10/14 09:17:57;;;;;;;10.05;1.30;;;14.40;99.90;;;;;;4970881;28;20030;-79
2023/10/14 09:20:32;;;;;;;10.98;2.47;;;14.30;99.90;;;;;;4971068;28;20053;-78
2023/10/14 09:23:16;;;;;;;11.82;2.75;;;14.20;99.90;;;;;;4977006;28;20030;-79
2023/10/14 09:26:02;;;;;;;13.80;2.00;;;14.50;99.90;;;;;;4975196;28;20035;-78
2023/10/14 09:28:35;;;;;;;10.20;2.03;;;14.40;99.90;;;;;;4970085;28;20034;-79
2023/10/14 09:31:07;;;;;;;13.93;1.85;;;14.30;99.90;;;;;;4976082;28;20036;-78
2023/10/14 09:33:43;;;;;;;5.55;1.50;;;14.80;99.90;;;;;;4976562;28;20041;-79
2023/10/14 09:36:14;;;;;;;11.40;1.80;;;14.80;99.90;;;;;;4960267;28;20426;-78
2023/10/14 09:38:40;;;;;;;8.20;1.48;;;14.90;99.90;;;;;;4974944;28;20491;-79
2023/10/14 09:41:07;;;;;;;10.23;2.10;;;14.60;99.90;;;;;;4961572;28;20064;-79
2023/10/14 09:43:39;;;;;;;6.90;1.58;;;15.00;99.90;;;;;;4962678;28;20042;-79
2023/10/14 09:46:08;;;;;;;14.60;2.22;;;15.30;99.90;;;;;;4972872;28;20070;-78
2023/10/14 09:48:34;;;;;;;10.80;1.75;;;15.60;99.90;;;;;;4973686;28;20041;-79
2023/10/14 09:51:01;;;;;;;14.38;1.73;;;15.50;99.90;;;;;;4977448;28;20042;-78
2023/10/14 09:53:28;;;;;;;7.68;1.80;;;15.60;99.90;;;;;;4973277;28;20073;-79
2023/10/14 09:55:56;;;;;;;9.73;2.38;;;15.90;99.90;;;;;;4954431;28;20081;-79
2023/10/14 09:58:23;;;;;;;8.73;1.52;;;16.00;99.90;;;;;;4966342;28;20042;-79
2023/10/14 10:00:49;;;;;;;13.05;2.30;;;16.20;99.90;;;;;;4958662;28;20104;-80
2023/10/14 10:03:15;;;;;;;5.43;1.08;;;16.30;99.90;;;;;;4973115;28;20521;-80
2023/10/14 10:05:44;;;;;;;7.13;1.67;;;16.70;99.90;;;;;;4961609;28;20483;-79
2023/10/14 10:08:24;;;;;;;15.05;2.13;;;16.60;99.90;;;;;;4977430;28;20027;-80
2023/10/14 10:10:51;;;;;;;7.32;1.10;;;16.80;99.90;;;;;;4971733;28;20030;-78
2023/10/14 10:13:17;;;;;;;9.98;1.65;;;16.60;99.90;;;;;;4970269;28;20035;-78
2023/10/14 10:15:44;;;;;;;11.55;2.10;;;16.80;99.90;;;;;;4958970;28;20525;-78
2023/10/14 10:18:12;;;;;;;11.20;1.67;;;16.50;99.90;;;;;;4958241;28;20086;-78
2023/10/14 10:20:44;;;;;;;7.57;1.50;;;16.70;99.90;;;;;;4991897;28;20042;-80
2023/10/14 10:23:10;;;;;;;7.07;1.63;;;16.80;99.90;;;;;;4959638;28;20059;-79
2023/10/14 10:25:35;;;;;;;10.93;1.95;;;16.60;99.90;;;;;;4974590;28;20392;-78
2023/10/14 10:28:27;;;;;;;12.82;1.73;;;16.50;99.90;;;;;;4991517;28;20099;-83
2023/10/14 10:31:16;;;;;;;9.70;1.42;;;16.30;99.90;;;;;;4990609;28;20499;-77
2023/10/14 10:33:51;;;;;;;5.63;1.10;;;16.70;99.90;;;;;;4972760;28;20038;-78
2023/10/14 10:36:25;;;;;;;10.65;1.00;;;16.90;99.90;;;;;;4969322;28;20034;-78
2023/10/14 10:38:55;;;;;;;11.07;2.50;;;16.80;99.90;;;;;;4944813;28;20038;-79
2023/10/14 10:41:31;;;;;;;10.30;1.38;;;16.90;99.90;;;;;;4975010;28;20030;-79
2023/10/14 10:44:05;;;;;;;6.78;0.98;;;17.10;99.90;;;;;;4977842;28;20402;-77
2023/10/14 10:46:37;;;;;;;13.65;1.55;;;17.00;99.90;;;;;;4938913;28;20775;-79
2023/10/14 10:49:06;;;;;;;14.18;2.30;;;16.90;99.90;;;;;;4986904;28;20414;-80
2023/10/14 10:51:34;;;;;;;9.50;1.33;;;17.10;99.90;;;;;;4972278;28;20129;-80
2023/10/14 10:54:01;;;;;;;14.80;2.53;;;17.20;99.90;;;;;;4976713;28;20600;-79
2023/10/14 10:56:30;;;;;;;11.50;1.60;;;17.30;99.90;;;;;;4972855;28;20034;-80
2023/10/14 10:58:59;;;;;;;10.07;1.60;;;17.30;99.90;;;;;;4973098;28;20031;-79
2023/10/14 11:01:24;;;;;;;9.85;1.95;;;17.40;99.90;;;;;;4966590;28;20043;-80
2023/10/14 11:03:50;;;;;;;5.18;1.05;;;17.70;99.90;;;;;;4962340;28;20036;-79
2023/10/14 11:06:17;;;;;;;7.82;1.00;;;17.70;99.90;;;;;;4956181;28;20161;-79
2023/10/14 11:08:46;;;;;;;9.07;2.15;;;17.60;99.90;;;;;;4960811;28;20038;-80
2023/10/14 11:11:12;;;;;;;12.98;1.95;;;17.70;99.90;;;;;;4963961;28;20113;-80
2023/10/14 11:13:39;;;;;;;7.40;1.30;;;17.70;99.90;;;;;;4974606;28;20114;-79
2023/10/14 11:16:13;;;;;;;10.30;2.40;;;18.10;99.90;;;;;;4960619;28;20407;-80
2023/10/14 11:18:48;;;;;;;8.80;1.95;;;18.10;99.60;;;;;;4959423;28;20442;-80
2023/10/14 11:21:15;;;;;;;8.85;1.27;;;18.00;99.90;;;;;;4959593;28;20456;-79
2023/10/14 11:23:41;;;;;;;10.52;3.45;;;17.70;99.90;;;;;;4975737;28;20399;-80
2023/10/14 11:26:11;;;;;;;8.27;1.33;;;17.90;99.90;;;;;;4959458;28;20048;-79
2023/10/14 11:28:37;;;;;;;13.02;2.10;;;18.10;99.80;;;;;;4958040;28;20125;-80
2023/10/14 11:31:07;;;;;;;4.55;1.15;;;18.00;99.90;;;;;;4974477;28;20061;-80
2023/10/14 11:33:33;;;;;;;10.43;1.90;;;18.20;98.90;;;;;;4942723;28;20514;-81
2023/10/14 11:36:02;;;;;;;8.05;2.45;;;18.40;98.60;;;;;;4972441;28;20054;-81
2023/10/14 11:38:31;;;;;;;9.98;1.85;;;18.20;99.90;;;;;;4975201;28;20741;-81
2023/10/14 11:41:02;;;;;;;15.35;3.17;;;18.20;98.80;;;;;;4974064;28;20391;-80
2023/10/14 11:43:28;;;;;;;6.00;1.50;;;18.50;99.60;;;;;;4974227;28;20034;-79
2023/10/14 11:45:56;;;;;;;7.32;1.45;;;18.60;98.60;;;;;;4975705;28;20617;-80
2023/10/14 11:48:33;;;;;;;8.88;3.00;;;18.10;98.10;;;;;;4967480;28;20038;-81
2023/10/14 11:51:02;;;;;;;4.78;0.82;;;17.70;99.90;;;;;;4973305;28;20035;-80
2023/10/14 11:53:32;;;;;;;3.92;1.40;;;17.70;98.90;;;;;;4970915;28;20049;-81
2023/10/14 11:55:59;;;;;;;13.00;1.65;;;18.00;98.20;;;;;;4970357;28;20026;-80
2023/10/14 11:58:26;;;;;;;15.70;1.92;;;18.40;97.50;;;;;;4267886;28;10000266;-81
2023/10/14 12:00:52;;;;;;;5.57;1.05;;;17.90;98.60;;;;;;4942870;28;20057;-82
2023/10/14 12:03:18;;;;;;;5.78;1.30;;;18.40;95.70;;;;;;4958453;28;20064;-81
2023/10/14 12:05:43;;;;;;;6.25;1.30;;;18.30;96.60;;;;;;4976473;28;20042;-81
2023/10/14 12:08:09;;;;;;;7.63;1.30;;;18.20;95.80;;;;;;4936392;28;20116;-82
2023/10/14 12:10:35;;;;;;;3.35;0.80;;;18.20;96.20;;;;;;4973070;28;20739;-81
2023/10/14 12:13:00;;;;;;;5.78;1.70;;;18.30;96.70;;;;;;4956720;28;20042;-81
2023/10/14 12:15:27;;;;;;;7.38;0.88;;;18.30;95.80;;;;;;4955907;28;20045;-81
2023/10/14 12:17:53;;;;;;;10.93;1.60;;;18.40;95.20;;;;;;4974170;28;20034;-81
2023/10/14 12:20:19;;;;;;;2.88;1.13;;;18.80;94.20;;;;;;4970947;28;20041;-80
2023/10/14 12:22:47;;;;;;;5.65;1.13;;;18.80;95.10;;;;;;4991203;28;20077;-81
2023/10/14 12:25:13;;;;;;;7.68;1.05;;;19.00;94.40;;;;;;4975862;28;20038;-82
2023/10/14 12:27:39;;;;;;;4.55;1.10;;;19.10;94.20;;;;;;4978120;28;21401;-81
2023/10/14 12:30:07;;;;;;;5.35;1.50;;;19.40;92.60;;;;;;4973713;28;20037;-82
2023/10/14 12:32:33;;;;;;;6.00;1.10;;;19.20;93.40;;;;;;4975056;28;20046;-82
2023/10/14 12:35:04;;;;;;;6.18;1.98;;;19.20;93.80;;;;;;4961010;28;20053;-82
2023/10/14 12:37:30;;;;;;;3.47;0.88;;;18.90;92.80;;;;;;4955456;28;20031;-81
2023/10/14 12:40:04;;;;;;;5.68;0.98;;;18.40;92.50;;;;;;4977271;28;20027;-82
2023/10/14 12:42:45;;;;;;;7.78;0.93;;;18.30;93.80;;;;;;4963257;28;20487;-81
2023/10/14 12:45:14;;;;;;;12.63;1.63;;;18.70;92.40;;;;;;4980793;28;20065;-82
2023/10/14 12:47:48;;;;;;;7.72;1.30;;;18.50;92.10;;;;;;4962586;28;20038;-81
2023/10/14 12:50:14;;;;;;;10.15;1.60;;;18.30;92.60;;;;;;4961030;28;20046;-81
2023/10/14 12:52:41;;;;;;;6.40;1.63;;;18.50;91.70;;;;;;4963392;28;20045;-80
2023/10/14 12:55:17;;;;;;;6.57;0.70;;;18.40;91.20;;;;;;4975670;28;20053;-81
2023/10/14 12:57:43;;;;;;;2.95;0.70;;;18.30;91.50;;;;;;4959872;28;20512;-81
2023/10/14 13:00:18;;;;;;;4.25;1.30;;;18.30;92.70;;;;;;4965114;28;20106;-81
2023/10/14 13:02:48;;;;;;;4.82;1.15;;;18.10;92.40;;;;;;4966457;28;20085;-81
2023/10/14 13:05:18;;;;;;;2.88;0.88;;;18.00;93.20;;;;;;4963194;28;20057;-81
2023/10/14 13:07:46;;;;;;;4.82;1.10;;;18.00;92.20;;;;;;4958754;28;20079;-80
2023/10/14 13:10:11;;;;;;;7.72;0.82;;;17.80;92.80;;;;;;4961491;28;20046;-81
2023/10/14 13:12:38;;;;;;;6.85;1.55;;;18.20;90.90;;;;;;4964263;28;20026;-81
2023/10/14 13:15:05;;;;;;;8.07;1.17;;;17.70;92.70;;;;;;4982655;28;20030;-81
2023/10/14 13:17:35;;;;;;;8.35;1.67;;;17.50;92.70;;;;;;4980594;28;20511;-81
2023/10/14 13:20:01;;;;;;;5.20;1.50;;;17.50;92.70;;;;;;4983557;28;20028;-81
2023/10/14 13:22:29;;;;;;;4.47;1.65;;;17.40;92.80;;;;;;4977810;28;20038;-81
2023/10/14 13:24:54;;;;;;;8.50;1.25;;;17.30;93.40;;;;;;4977590;28;20041;-81